sensor_id;sensor_type;location;lat;lon;timestamp;pressure;altitude;pressure_sealevel;temperature;humidity
50093;BME280;35974;47.752;10.290;2023-07-31T04:02:00;93961.50;;;12.22;100.00
50093;BME280;35974;47.752;10.290;2023-07-31T04:04:27;93966.28;;;12.25;100.00
50093;BME280;35974;47.752;10.290;2023-07-31T04:06:53;93955.44;;;12.21;100.00
50093;BME280;35974;47.752;10.290;2023-07-31T04:09:19;93955.72;;;12.38;100.00
50093;BME280;35974;47.752;10.290;2023-07-31T04:11:46;93956.06;;;12.49;100.00
50093;BME280;35974;47.752;10.290;2023-07-31T04:14:12;93959.25;;;12.51;100.00
50093;BME280;35974;47.752;10.290;2023-07-31T04:16:38;93961.09;;;12.50;100.00
50093;BME280;35974;47.752;10.290;2023-07-31T04:19:05;93972.13;;;12.59;100.00
50093;BME280;35974;47.752;10.290;2023-07-31T04:21:31;93963.25;;;12.60;100.00
50093;BME280;35974;47.752;10.290;2023-07-31T04:23:58;93954.25;;;12.74;100.00
50093;BME280;35974;47.752;10.290;2023-07-31T04:26:24;93956.97;;;12.86;100.00
50093;BME280;35974;47.752;10.290;2023-07-31T04:28:51;93953.69;;;12.91;100.00
50093;BME280;35974;47.752;10.290;2023-07-31T04:31:17;93955.31;;;12.92;100.00
50093;BME280;35974;47.752;10.290;2023-07-31T04:33:44;93956.41;;;13.03;100.00
50093;BME280;35974;47.752;10.290;2023-07-31T04:36:10;93957.59;;;13.07;100.00
50093;BME280;35974;47.752;10.290;2023-07-31T04:38:37;93959.16;;;13.14;100.00
50093;BME280;35974;47.752;10.290;2023-07-31T04:41:03;93961.09;;;13.19;100.00
50093;BME280;35974;47.752;10.290;2023-07-31T04:43:31;93957.41;;;13.27;100.00
50093;BME280;35974;47.752;10.290;2023-07-31T04:45:58;93963.44;;;13.34;100.00
50093;BME280;35974;47.752;10.290;2023-07-31T04:48:24;93960.50;;;13.42;100.00
50093;BME280;35974;47.752;10.290;2023-07-31T04:50:51;93963.56;;;13.39;100.00
50093;BME280;35974;47.752;10.290;2023-07-31T04:53:17;93967.34;;;13.43;100.00
50093;BME280;35974;47.752;10.290;2023-07-31T04:55:44;93968.53;;;13.47;100.00
50093;BME280;35974;47.752;10.290;2023-07-31T04:58:10;93962.53;;;13.40;100.00
50093;BME280;35974;47.752;10.290;2023-07-31T05:00:37;93973.44;;;13.44;100.00
50093;BME280;35974;47.752;10.290;2023-07-31T05:03:03;93963.56;;;13.58;100.00
50093;BME280;35974;47.752;10.290;2023-07-31T05:05:29;93964.31;;;13.65;100.00
50093;BME280;35974;47.752;10.290;2023-07-31T05:07:56;93962.53;;;13.77;100.00
50093;BME280;35974;47.752;10.290;2023-07-31T05:10:22;93959.50;;;13.92;100.00
50093;BME280;35974;47.752;10.290;2023-07-31T05:12:49;93961.03;;;14.00;100.00
50093;BME280;35974;47.752;10.290;2023-07-31T05:15:15;93968.63;;;14.08;100.00
50093;BME280;35974;47.752;10.290;2023-07-31T05:17:42;93974.97;;;14.19;100.00
50093;BME280;35974;47.752;10.290;2023-07-31T05:20:08;93965.94;;;14.26;100.00
50093;BME280;35974;47.752;10.290;2023-07-31T05:22:35;93968.25;;;14.35;100.00
50093;BME280;35974;47.752;10.290;2023-07-31T05:25:01;93968.06;;;14.48;100.00
50093;BME280;35974;47.752;10.290;2023-07-31T05:27:28;93966.72;;;14.57;100.00
50093;BME280;35974;47.752;10.290;2023-07-31T05:29:54;93964.69;;;14.59;100.00
50093;BME280;35974;47.752;10.290;2023-07-31T05:32:20;93973.41;;;14.72;100.00
50093;BME280;35974;47.752;10.290;2023-07-31T05:34:47;93972.03;;;14.81;100.00
50093;BME280;35974;47.752;10.290;2023-07-31T05:37:14;93973.22;;;14.85;100.00
50093;BME280;35974;47.752;10.290;2023-07-31T05:39:40;93973.44;;;14.83;100.00
50093;BME280;35974;47.752;10.290;2023-07-31T05:42:06;93967.81;;;14.92;100.00
50093;BME280;35974;47.752;10.290;2023-07-31T05:44:33;93970.25;;;14.93;100.00
50093;BME280;35974;47.752;10.290;2023-07-31T05:46:59;93972.28;;;14.91;100.00
50093;BME280;35974;47.752;10.290;2023-07-31T05:49:25;93972.75;;;15.00;100.00
50093;BME280;35974;47.752;10.290;2023-07-31T05:51:52;93967.47;;;15.12;100.00
50093;BME280;35974;47.752;10.290;2023-07-31T05:54:18;93968.28;;;15.12;100.00
50093;BME280;35974;47.752;10.290;2023-07-31T05:56:45;93972.63;;;15.30;100.00
50093;BME280;35974;47.752;10.290;2023-07-31T05:59:11;93971.28;;;15.92;100.00
50093;BME280;35974;47.752;10.290;2023-07-31T06:01:38;93972.91;;;15.93;100.00
50093;BME280;35974;47.752;10.290;2023-07-31T06:04:05;93972.91;;;15.69;100.00
50093;BME280;35974;47.752;10.290;2023-07-31T06:06:31;93956.38;;;15.22;100.00
50093;BME280;35974;47.752;10.290;2023-07-31T06:08:57;93957.00;;;15.76;100.00
50093;BME280;35974;47.752;10.290;2023-07-31T06:11:26;93947.53;;;15.40;100.00
50093;BME280;35974;47.752;10.290;2023-07-31T06:13:52;93965.88;;;15.34;100.00
50093;BME280;35974;47.752;10.290;2023-07-31T06:16:19;93967.50;;;15.35;100.00
50093;BME280;35974;47.752;10.290;2023-07-31T06:18:55;93956.13;;;15.35;100.00
50093;BME280;35974;47.752;10.290;2023-07-31T06:21:22;93952.13;;;15.32;100.00
50093;BME280;35974;47.752;10.290;2023-07-31T06:23:48;93952.91;;;15.45;100.00
50093;BME280;35974;47.752;10.290;2023-07-31T06:26:15;93953.94;;;15.44;100.00
50093;BME280;35974;47.752;10.290;2023-07-31T06:28:41;93949.81;;;15.48;100.00
50093;BME280;35974;47.752;10.290;2023-07-31T06:31:08;93951.06;;;15.57;100.00
50093;BME280;35974;47.752;10.290;2023-07-31T06:33:34;93950.25;;;15.45;100.00
50093;BME280;35974;47.752;10.290;2023-07-31T06:36:01;93952.13;;;15.32;100.00
50093;BME280;35974;47.752;10.290;2023-07-31T06:38:27;93873.09;;;14.85;100.00
50093;BME280;35974;47.752;10.290;2023-07-31T06:40:53;93945.25;;;15.31;100.00
50093;BME280;35974;47.752;10.290;2023-07-31T06:43:20;93948.22;;;15.23;100.00
50093;BME280;35974;47.752;10.290;2023-07-31T06:45:54;93948.91;;;15.30;100.00
50093;BME280;35974;47.752;10.290;2023-07-31T06:48:21;93948.44;;;15.33;100.00
50093;BME280;35974;47.752;10.290;2023-07-31T06:50:47;93951.44;;;15.25;100.00
50093;BME280;35974;47.752;10.290;2023-07-31T06:53:13;93951.88;;;15.22;100.00
50093;BME280;35974;47.752;10.290;2023-07-31T06:55:40;93945.25;;;15.31;100.00
50093;BME280;35974;47.752;10.290;2023-07-31T06:58:06;93949.59;;;15.37;100.00
50093;BME280;35974;47.752;10.290;2023-07-31T07:00:32;93952.91;;;15.45;100.00
50093;BME280;35974;47.752;10.290;2023-07-31T07:02:59;93941.31;;;15.46;100.00
50093;BME280;35974;47.752;10.290;2023-07-31T07:05:26;93946.59;;;15.46;100.00
50093;BME280;35974;47.752;10.290;2023-07-31T07:07:52;93938.06;;;15.67;100.00
50093;BME280;35974;47.752;10.290;2023-07-31T07:10:19;93933.03;;;15.78;100.00
50093;BME280;35974;47.752;10.290;2023-07-31T07:12:45;93937.22;;;15.90;100.00
50093;BME280;35974;47.752;10.290;2023-07-31T07:15:11;93943.03;;;16.04;100.00
50093;BME280;35974;47.752;10.290;2023-07-31T07:17:38;93930.75;;;16.27;100.00
50093;BME280;35974;47.752;10.290;2023-07-31T07:20:05;93936.22;;;16.37;100.00
50093;BME280;35974;47.752;10.290;2023-07-31T07:22:31;93917.66;;;16.32;100.00
50093;BME280;35974;47.752;10.290;2023-07-31T07:24:57;93921.03;;;16.44;100.00
50093;BME280;35974;47.752;10.290;2023-07-31T07:27:24;93915.50;;;16.46;100.00
50093;BME280;35974;47.752;10.290;2023-07-31T07:29:51;93914.00;;;16.67;100.00
50093;BME280;35974;47.752;10.290;2023-07-31T07:32:18;93921.72;;;16.86;100.00
50093;BME280;35974;47.752;10.290;2023-07-31T07:34:45;93914.47;;;16.64;100.00
50093;BME280;35974;47.752;10.290;2023-07-31T07:37:11;93906.63;;;16.52;100.00
50093;BME280;35974;47.752;10.290;2023-07-31T07:39:38;93910.63;;;16.55;100.00
50093;BME280;35974;47.752;10.290;2023-07-31T07:42:04;93928.38;;;16.42;100.00
50093;BME280;35974;47.752;10.290;2023-07-31T07:44:30;93928.09;;;16.56;100.00
50093;BME280;35974;47.752;10.290;2023-07-31T07:46:57;93927.13;;;16.96;100.00
50093;BME280;35974;47.752;10.290;2023-07-31T07:49:23;93925.69;;;17.05;100.00
50093;BME280;35974;47.752;10.290;2023-07-31T07:51:50;93926.16;;;17.02;100.00
50093;BME280;35974;47.752;10.290;2023-07-31T07:54:16;93923.44;;;17.14;100.00
50093;BME280;35974;47.752;10.290;2023-07-31T07:56:49;93919.09;;;17.25;100.00
50093;BME280;35974;47.752;10.290;2023-07-31T07:59:19;93911.78;;;17.32;100.00
50093;BME280;35974;47.752;10.290;2023-07-31T08:02:03;93909.47;;;17.18;100.00
50093;BME280;35974;47.752;10.290;2023-07-31T08:04:30;93914.34;;;17.27;100.00
50093;BME280;35974;47.752;10.290;2023-07-31T08:06:56;93922.47;;;17.20;100.00
50093;BME280;35974;47.752;10.290;2023-07-31T08:09:22;93919.09;;;17.25;100.00
50093;BME280;35974;47.752;10.290;2023-07-31T08:11:49;93913.94;;;17.35;100.00
50093;BME280;35974;47.752;10.290;2023-07-31T08:14:15;93915.66;;;17.46;100.00
50093;BME280;35974;47.752;10.290;2023-07-31T08:16:42;93826.47;;;16.80;100.00
50093;BME280;35974;47.752;10.290;2023-07-31T08:19:09;93908.44;;;17.42;100.00
50093;BME280;35974;47.752;10.290;2023-07-31T08:21:35;93913.72;;;17.59;100.00
50093;BME280;35974;47.752;10.290;2023-07-31T08:24:03;93914.50;;;17.59;100.00
50093;BME280;35974;47.752;10.290;2023-07-31T08:26:29;93912.28;;;17.73;100.00
50093;BME280;35974;47.752;10.290;2023-07-31T08:28:55;93909.25;;;17.86;100.00
50093;BME280;35974;47.752;10.290;2023-07-31T08:31:23;93921.09;;;17.56;100.00
50093;BME280;35974;47.752;10.290;2023-07-31T08:33:49;93915.06;;;17.39;100.00
50093;BME280;35974;47.752;10.290;2023-07-31T08:36:16;93915.66;;;17.46;100.00
50093;BME280;35974;47.752;10.290;2023-07-31T08:38:49;93917.53;;;17.68;100.00
50093;BME280;35974;47.752;10.290;2023-07-31T08:41:16;93913.44;;;17.82;100.00
50093;BME280;35974;47.752;10.290;2023-07-31T08:43:45;93909.41;;;17.97;100.00
50093;BME280;35974;47.752;10.290;2023-07-31T08:46:12;93911.59;;;18.05;100.00
50093;BME280;35974;47.752;10.290;2023-07-31T08:48:41;93919.09;;;18.13;100.00
50093;BME280;35974;47.752;10.290;2023-07-31T08:51:08;93910.84;;;18.09;100.00
50093;BME280;35974;47.752;10.290;2023-07-31T08:53:35;93912.94;;;17.85;100.00
50093;BME280;35974;47.752;10.290;2023-07-31T08:56:02;93911.84;;;17.81;100.00
50093;BME280;35974;47.752;10.290;2023-07-31T08:58:30;93915.59;;;17.85;100.00
50093;BME280;35974;47.752;10.290;2023-07-31T09:01:04;93910.50;;;18.01;100.00
50093;BME280;35974;47.752;10.290;2023-07-31T09:03:37;93908.81;;;17.89;100.00
50093;BME280;35974;47.752;10.290;2023-07-31T09:06:05;93907.66;;;17.85;100.00
50093;BME280;35974;47.752;10.290;2023-07-31T09:08:32;93908.31;;;17.92;100.00
50093;BME280;35974;47.752;10.290;2023-07-31T09:11:00;93904.59;;;17.93;100.00
50093;BME280;35974;47.752;10.290;2023-07-31T09:13:29;93901.28;;;17.81;100.00
50093;BME280;35974;47.752;10.290;2023-07-31T09:15:55;93894.72;;;18.11;100.00
50093;BME280;35974;47.752;10.290;2023-07-31T09:18:22;93902.72;;;18.16;100.00
50093;BME280;35974;47.752;10.290;2023-07-31T09:21:05;93891.31;;;17.88;100.00
50093;BME280;35974;47.752;10.290;2023-07-31T09:23:43;93889.53;;;17.94;100.00
50093;BME280;35974;47.752;10.290;2023-07-31T09:29:00;93889.38;;;18.06;100.00
50093;BME280;35974;47.752;10.290;2023-07-31T09:31:31;93882.91;;;17.97;100.00
50093;BME280;35974;47.752;10.290;2023-07-31T09:33:59;93871.34;;;18.03;100.00
50093;BME280;35974;47.752;10.290;2023-07-31T09:36:30;93866.09;;;18.08;100.00
50093;BME280;35974;47.752;10.290;2023-07-31T09:39:04;93856.72;;;18.27;100.00
50093;BME280;35974;47.752;10.290;2023-07-31T09:41:30;93860.56;;;18.42;100.00
50093;BME280;35974;47.752;10.290;2023-07-31T09:43:57;93867.47;;;18.75;100.00
50093;BME280;35974;47.752;10.290;2023-07-31T09:46:24;93849.72;;;18.81;100.00
50093;BME280;35974;47.752;10.290;2023-07-31T09:48:53;93851.84;;;18.79;100.00
50093;BME280;35974;47.752;10.290;2023-07-31T09:51:26;93853.56;;;19.00;100.00
50093;BME280;35974;47.752;10.290;2023-07-31T09:53:59;93849.41;;;19.15;100.00
50093;BME280;35974;47.752;10.290;2023-07-31T09:56:27;93843.75;;;19.54;100.00
50093;BME280;35974;47.752;10.290;2023-07-31T10:01:31;93838.56;;;19.85;100.00
50093;BME280;35974;47.752;10.290;2023-07-31T10:03:58;93846.81;;;19.25;100.00
50093;BME280;35974;47.752;10.290;2023-07-31T10:09:08;93842.50;;;19.14;100.00
50093;BME280;35974;47.752;10.290;2023-07-31T10:11:37;93836.19;;;19.20;100.00
50093;BME280;35974;47.752;10.290;2023-07-31T10:14:05;93829.34;;;19.29;100.00
50093;BME280;35974;47.752;10.290;2023-07-31T10:16:37;93824.97;;;19.71;100.00
50093;BME280;35974;47.752;10.290;2023-07-31T10:19:05;93812.56;;;19.92;100.00
50093;BME280;35974;47.752;10.290;2023-07-31T10:21:31;93815.66;;;19.58;100.00
50093;BME280;35974;47.752;10.290;2023-07-31T10:24:04;93805.66;;;19.91;100.00
50093;BME280;35974;47.752;10.290;2023-07-31T10:29:09;93811.50;;;19.83;100.00
50093;BME280;35974;47.752;10.290;2023-07-31T10:31:38;93812.78;;;19.80;100.00
50093;BME280;35974;47.752;10.290;2023-07-31T10:34:05;93813.63;;;20.01;100.00
50093;BME280;35974;47.752;10.290;2023-07-31T10:36:32;93805.66;;;19.96;100.00
50093;BME280;35974;47.752;10.290;2023-07-31T10:38:59;93801.97;;;19.97;100.00
50093;BME280;35974;47.752;10.290;2023-07-31T10:41:29;93800.00;;;19.67;100.00
50093;BME280;35974;47.752;10.290;2023-07-31T10:43:59;93804.03;;;19.85;100.00
50093;BME280;35974;47.752;10.290;2023-07-31T10:46:30;93788.13;;;19.95;100.00
50093;BME280;35974;47.752;10.290;2023-07-31T10:48:58;93795.06;;;20.17;100.00
50093;BME280;35974;47.752;10.290;2023-07-31T10:51:32;93789.19;;;20.81;100.00
50093;BME280;35974;47.752;10.290;2023-07-31T10:54:15;93789.72;;;20.58;100.00
50093;BME280;35974;47.752;10.290;2023-07-31T10:56:45;93785.44;;;20.98;100.00
50093;BME280;35974;47.752;10.290;2023-07-31T10:59:34;93788.63;;;20.95;100.00
50093;BME280;35974;47.752;10.290;2023-07-31T11:02:00;93776.91;;;21.01;100.00
50093;BME280;35974;47.752;10.290;2023-07-31T11:04:30;93776.31;;;21.14;100.00
50093;BME280;35974;47.752;10.290;2023-07-31T11:07:01;93761.97;;;21.05;100.00
50093;BME280;35974;47.752;10.290;2023-07-31T11:09:30;93760.66;;;21.08;100.00
50093;BME280;35974;47.752;10.290;2023-07-31T11:11:56;93766.25;;;20.96;100.00
50093;BME280;35974;47.752;10.290;2023-07-31T11:14:23;93760.50;;;20.73;100.00
50093;BME280;35974;47.752;10.290;2023-07-31T11:16:50;93749.09;;;20.26;100.00
50093;BME280;35974;47.752;10.290;2023-07-31T11:19:26;93747.22;;;20.47;100.00
50093;BME280;35974;47.752;10.290;2023-07-31T11:21:52;93749.84;;;20.63;100.00
50093;BME280;35974;47.752;10.290;2023-07-31T11:24:25;93737.09;;;20.55;100.00
50093;BME280;35974;47.752;10.290;2023-07-31T11:26:53;93722.16;;;20.79;100.00
50093;BME280;35974;47.752;10.290;2023-07-31T11:29:19;93721.56;;;21.03;100.00
50093;BME280;35974;47.752;10.290;2023-07-31T11:31:47;93723.28;;;20.73;100.00
50093;BME280;35974;47.752;10.290;2023-07-31T11:34:14;93719.00;;;20.77;100.00
50093;BME280;35974;47.752;10.290;2023-07-31T11:36:41;93716.28;;;20.93;100.00
50093;BME280;35974;47.752;10.290;2023-07-31T11:39:18;93711.69;;;21.14;100.00
50093;BME280;35974;47.752;10.290;2023-07-31T11:41:45;93706.59;;;21.17;100.00
50093;BME280;35974;47.752;10.290;2023-07-31T11:44:12;93707.13;;;21.19;100.00
50093;BME280;35974;47.752;10.290;2023-07-31T11:46:53;93695.28;;;21.51;96.22
50093;BME280;35974;47.752;10.290;2023-07-31T11:49:22;93690.91;;;21.66;100.00
50093;BME280;35974;47.752;10.290;2023-07-31T11:51:48;93687.56;;;21.84;99.99
50093;BME280;35974;47.752;10.290;2023-07-31T11:54:27;93685.34;;;21.97;100.00
50093;BME280;35974;47.752;10.290;2023-07-31T11:56:53;93685.00;;;21.69;85.06
50093;BME280;35974;47.752;10.290;2023-07-31T11:59:23;93676.44;;;21.77;88.59
50093;BME280;35974;47.752;10.290;2023-07-31T12:01:51;93680.00;;;21.62;86.28
50093;BME280;35974;47.752;10.290;2023-07-31T12:04:19;93677.78;;;22.09;76.76
50093;BME280;35974;47.752;10.290;2023-07-31T12:06:49;93680.81;;;22.26;80.00
50093;BME280;35974;47.752;10.290;2023-07-31T12:09:16;93672.44;;;22.09;77.97
50093;BME280;35974;47.752;10.290;2023-07-31T12:11:43;93678.09;;;22.02;73.79
50093;BME280;35974;47.752;10.290;2023-07-31T12:17:06;93688.03;;;21.91;77.77
50093;BME280;35974;47.752;10.290;2023-07-31T12:19:33;93685.97;;;21.83;81.62
50093;BME280;35974;47.752;10.290;2023-07-31T12:22:01;93684.41;;;21.77;81.00
50093;BME280;35974;47.752;10.290;2023-07-31T12:24:27;93683.72;;;22.01;81.45
50093;BME280;35974;47.752;10.290;2023-07-31T12:26:54;93673.50;;;22.13;81.58
50093;BME280;35974;47.752;10.290;2023-07-31T12:29:21;93669.19;;;22.17;81.85
50093;BME280;35974;47.752;10.290;2023-07-31T12:31:47;93674.56;;;22.12;72.06
50093;BME280;35974;47.752;10.290;2023-07-31T12:34:15;93680.50;;;22.04;76.34
50093;BME280;35974;47.752;10.290;2023-07-31T12:36:42;93682.59;;;22.07;80.97
50093;BME280;35974;47.752;10.290;2023-07-31T12:39:08;93676.19;;;22.08;78.45
50093;BME280;35974;47.752;10.290;2023-07-31T12:44:12;93673.34;;;22.28;78.45
50093;BME280;35974;47.752;10.290;2023-07-31T12:46:39;93677.22;;;22.12;77.16
50093;BME280;35974;47.752;10.290;2023-07-31T12:49:06;93667.97;;;22.34;74.89
50093;BME280;35974;47.752;10.290;2023-07-31T12:51:32;93659.84;;;21.90;77.89
50093;BME280;35974;47.752;10.290;2023-07-31T12:53:58;93676.44;;;21.77;79.76
50093;BME280;35974;47.752;10.290;2023-07-31T12:56:25;93668.38;;;21.03;80.02
50093;BME280;35974;47.752;10.290;2023-07-31T12:58:51;93662.53;;;20.96;79.83
50093;BME280;35974;47.752;10.290;2023-07-31T13:01:17;93663.28;;;21.07;81.62
50093;BME280;35974;47.752;10.290;2023-07-31T13:03:44;93654.28;;;21.02;81.51
50093;BME280;35974;47.752;10.290;2023-07-31T13:06:11;93653.16;;;21.09;84.12
50093;BME280;35974;47.752;10.290;2023-07-31T13:08:37;93652.66;;;21.46;81.90
50093;BME280;35974;47.752;10.290;2023-07-31T13:11:03;93645.94;;;21.64;80.05
50093;BME280;35974;47.752;10.290;2023-07-31T13:13:30;93645.13;;;21.64;84.35
50093;BME280;35974;47.752;10.290;2023-07-31T13:15:58;93651.31;;;21.88;87.00
50093;BME280;35974;47.752;10.290;2023-07-31T13:18:25;93649.75;;;21.87;80.49
50093;BME280;35974;47.752;10.290;2023-07-31T13:20:59;93643.84;;;21.90;83.39
50093;BME280;35974;47.752;10.290;2023-07-31T13:23:25;93654.88;;;22.08;86.53
50093;BME280;35974;47.752;10.290;2023-07-31T13:25:53;93649.47;;;22.18;81.55
50093;BME280;35974;47.752;10.290;2023-07-31T13:28:19;93638.94;;;22.32;77.69
50093;BME280;35974;47.752;10.290;2023-07-31T13:31:04;93642.41;;;22.27;78.63
50093;BME280;35974;47.752;10.290;2023-07-31T13:33:30;93635.50;;;22.32;77.46
50093;BME280;35974;47.752;10.290;2023-07-31T13:36:04;93617.63;;;22.56;79.04
50093;BME280;35974;47.752;10.290;2023-07-31T13:38:30;93616.72;;;22.42;80.87
50093;BME280;35974;47.752;10.290;2023-07-31T13:40:56;93620.53;;;22.36;83.91
50093;BME280;35974;47.752;10.290;2023-07-31T13:43:23;93620.47;;;22.41;83.11
50093;BME280;35974;47.752;10.290;2023-07-31T13:45:49;93615.59;;;22.48;80.02
50093;BME280;35974;47.752;10.290;2023-07-31T13:48:16;93597.69;;;23.16;77.33
50093;BME280;35974;47.752;10.290;2023-07-31T13:50:42;93599.38;;;23.07;78.83
50093;BME280;35974;47.752;10.290;2023-07-31T13:53:08;93589.63;;;22.97;78.11
50093;BME280;35974;47.752;10.290;2023-07-31T13:55:35;93589.75;;;23.11;69.82
50093;BME280;35974;47.752;10.290;2023-07-31T13:58:01;93595.34;;;22.90;69.53
50093;BME280;35974;47.752;10.290;2023-07-31T14:00:28;93590.56;;;22.87;65.29
50093;BME280;35974;47.752;10.290;2023-07-31T14:02:55;93590.13;;;22.80;69.18
50093;BME280;35974;47.752;10.290;2023-07-31T14:05:21;93592.03;;;22.98;67.12
50093;BME280;35974;47.752;10.290;2023-07-31T14:07:48;93594.72;;;22.55;66.18
50093;BME280;35974;47.752;10.290;2023-07-31T14:10:14;93590.63;;;22.39;66.73
50093;BME280;35974;47.752;10.290;2023-07-31T14:12:41;93595.03;;;22.24;66.72
50093;BME280;35974;47.752;10.290;2023-07-31T14:15:09;93577.00;;;22.16;65.85
50093;BME280;35974;47.752;10.290;2023-07-31T14:17:35;93589.47;;;21.97;67.90
50093;BME280;35974;47.752;10.290;2023-07-31T14:20:02;93590.47;;;22.01;66.81
50093;BME280;35974;47.752;10.290;2023-07-31T14:22:30;93590.81;;;21.94;64.90
50093;BME280;35974;47.752;10.290;2023-07-31T14:24:56;93588.88;;;22.00;67.44
50093;BME280;35974;47.752;10.290;2023-07-31T14:27:23;93590.53;;;21.66;65.15
50093;BME280;35974;47.752;10.290;2023-07-31T14:29:51;93596.97;;;21.60;66.66
50093;BME280;35974;47.752;10.290;2023-07-31T14:32:18;93588.16;;;21.65;67.73
50093;BME280;35974;47.752;10.290;2023-07-31T14:34:44;93596.19;;;21.60;69.23
50093;BME280;35974;47.752;10.290;2023-07-31T14:37:10;93587.50;;;21.78;69.96
50093;BME280;35974;47.752;10.290;2023-07-31T14:39:39;93599.59;;;21.65;71.32
50093;BME280;35974;47.752;10.290;2023-07-31T14:42:08;93601.63;;;21.39;71.77
50093;BME280;35974;47.752;10.290;2023-07-31T14:44:36;93601.72;;;21.29;72.81
50093;BME280;35974;47.752;10.290;2023-07-31T14:47:02;93604.31;;;21.34;73.05
50093;BME280;35974;47.752;10.290;2023-07-31T14:49:31;93599.56;;;21.31;70.41
50093;BME280;35974;47.752;10.290;2023-07-31T14:51:57;93594.78;;;21.28;68.66
50093;BME280;35974;47.752;10.290;2023-07-31T14:54:23;93597.56;;;21.12;72.54
50093;BME280;35974;47.752;10.290;2023-07-31T14:57:06;93589.47;;;21.28;72.36
50093;BME280;35974;47.752;10.290;2023-07-31T14:59:33;93591.38;;;21.22;72.79
50093;BME280;35974;47.752;10.290;2023-07-31T15:02:14;93589.31;;;21.14;74.26
50093;BME280;35974;47.752;10.290;2023-07-31T15:04:41;93593.56;;;21.54;74.06
50093;BME280;35974;47.752;10.290;2023-07-31T15:07:11;93588.28;;;21.44;72.70
50093;BME280;35974;47.752;10.290;2023-07-31T15:09:37;93588.78;;;21.51;73.91
50093;BME280;35974;47.752;10.290;2023-07-31T15:12:04;93583.47;;;21.51;75.02
50093;BME280;35974;47.752;10.290;2023-07-31T15:14:30;93583.53;;;21.75;74.22
50093;BME280;35974;47.752;10.290;2023-07-31T15:16:57;93581.16;;;21.69;73.58
50093;BME280;35974;47.752;10.290;2023-07-31T15:19:24;93578.31;;;21.89;74.51
50093;BME280;35974;47.752;10.290;2023-07-31T15:24:30;93558.78;;;21.99;73.72
50093;BME280;35974;47.752;10.290;2023-07-31T15:26:56;93552.97;;;22.21;73.10
50093;BME280;35974;47.752;10.290;2023-07-31T15:29:23;93555.94;;;22.44;72.75
50093;BME280;35974;47.752;10.290;2023-07-31T15:31:49;93553.38;;;22.77;66.04
50093;BME280;35974;47.752;10.290;2023-07-31T15:34:16;93545.00;;;22.64;67.55
50093;BME280;35974;47.752;10.290;2023-07-31T15:36:42;93540.22;;;22.61;68.28
50093;BME280;35974;47.752;10.290;2023-07-31T15:39:08;93537.19;;;22.49;66.77
50093;BME280;35974;47.752;10.290;2023-07-31T15:41:44;93550.81;;;22.23;68.61
50093;BME280;35974;47.752;10.290;2023-07-31T15:44:11;93541.88;;;21.85;70.16
50093;BME280;35974;47.752;10.290;2023-07-31T15:46:38;93547.22;;;22.09;69.49
50093;BME280;35974;47.752;10.290;2023-07-31T15:49:05;93538.38;;;22.13;70.31
50093;BME280;35974;47.752;10.290;2023-07-31T15:51:47;93551.81;;;22.27;70.04
50093;BME280;35974;47.752;10.290;2023-07-31T15:54:13;93545.84;;;22.41;71.79
50093;BME280;35974;47.752;10.290;2023-07-31T15:56:47;93543.31;;;22.49;71.80
50093;BME280;35974;47.752;10.290;2023-07-31T15:59:16;93537.63;;;22.56;73.00
50093;BME280;35974;47.752;10.290;2023-07-31T16:01:45;93537.94;;;22.74;71.24
50093;BME280;35974;47.752;10.290;2023-07-31T16:04:17;93541.81;;;22.62;72.56
50093;BME280;35974;47.752;10.290;2023-07-31T16:06:53;93540.78;;;22.58;67.88
50093;BME280;35974;47.752;10.290;2023-07-31T16:09:19;93544.44;;;22.19;70.99
50093;BME280;35974;47.752;10.290;2023-07-31T16:11:55;93544.81;;;22.37;70.97
50093;BME280;35974;47.752;10.290;2023-07-31T16:14:21;93533.13;;;22.33;72.27
50093;BME280;35974;47.752;10.290;2023-07-31T16:16:48;93538.09;;;22.15;71.23
50093;BME280;35974;47.752;10.290;2023-07-31T16:19:17;93535.50;;;21.86;73.84
50093;BME280;35974;47.752;10.290;2023-07-31T16:21:44;93526.19;;;21.83;72.39
50093;BME280;35974;47.752;10.290;2023-07-31T16:24:10;93525.22;;;21.74;74.01
50093;BME280;35974;47.752;10.290;2023-07-31T16:26:36;93526.28;;;21.73;73.92
50093;BME280;35974;47.752;10.290;2023-07-31T16:29:03;93529.00;;;21.68;73.99
50093;BME280;35974;47.752;10.290;2023-07-31T16:31:32;93533.97;;;21.50;74.61
50093;BME280;35974;47.752;10.290;2023-07-31T16:34:21;93529.09;;;21.57;73.31
50093;BME280;35974;47.752;10.290;2023-07-31T16:36:55;93526.78;;;21.46;75.68
50093;BME280;35974;47.752;10.290;2023-07-31T16:39:23;93520.19;;;21.38;76.05
50093;BME280;35974;47.752;10.290;2023-07-31T16:42:01;93517.72;;;21.47;76.46
50093;BME280;35974;47.752;10.290;2023-07-31T16:44:27;93517.50;;;21.43;76.01
50093;BME280;35974;47.752;10.290;2023-07-31T16:46:54;93514.84;;;21.38;73.36
50093;BME280;35974;47.752;10.290;2023-07-31T16:49:21;93507.34;;;21.50;75.25
50093;BME280;35974;47.752;10.290;2023-07-31T16:51:48;93511.38;;;21.43;75.00
50093;BME280;35974;47.752;10.290;2023-07-31T16:54:14;93503.63;;;21.51;75.80
50093;BME280;35974;47.752;10.290;2023-07-31T16:56:41;93509.94;;;21.55;76.66
50093;BME280;35974;47.752;10.290;2023-07-31T16:59:24;93510.88;;;21.70;76.41
50093;BME280;35974;47.752;10.290;2023-07-31T17:01:51;93508.72;;;21.72;75.21
50093;BME280;35974;47.752;10.290;2023-07-31T17:04:17;93513.72;;;21.79;73.67
50093;BME280;35974;47.752;10.290;2023-07-31T17:06:45;93513.16;;;21.82;73.68